createdAt,value
2019-05-19T00:01:17.306Z,53.33
2019-05-19T00:03:45.891Z,56.60
2019-05-19T00:06:14.592Z,57.20
2019-05-19T00:08:43.178Z,54.55
2019-05-19T00:11:11.780Z,60.37
2019-05-19T00:13:40.433Z,52.37
2019-05-19T00:16:08.958Z,59.03
2019-05-19T00:18:37.574Z,57.88
2019-05-19T00:21:06.193Z,46.10
2019-05-19T00:23:35.692Z,56.93
2019-05-19T00:26:04.382Z,59.20
2019-05-19T00:28:33.873Z,56.73
2019-05-19T00:31:02.406Z,48.02
2019-05-19T00:33:31.031Z,57.13
2019-05-19T00:35:59.697Z,58.40
2019-05-19T00:38:28.294Z,56.20
2019-05-19T00:40:56.978Z,51.23
2019-05-19T00:43:25.666Z,54.87
2019-05-19T00:45:54.626Z,57.35
2019-05-19T00:48:23.480Z,57.30
2019-05-19T00:50:52.095Z,60.73
2019-05-19T00:53:21.278Z,54.88
2019-05-19T00:55:50.285Z,63.03
2019-05-19T00:58:19.430Z,60.90
2019-05-19T01:00:48.938Z,56.67
2019-05-19T01:03:17.613Z,52.47
2019-05-19T01:05:46.153Z,56.13
2019-05-19T01:08:14.798Z,54.53
2019-05-19T01:10:43.458Z,60.00
2019-05-19T01:13:12.042Z,60.60
2019-05-19T01:15:41.648Z,51.70
2019-05-19T01:18:10.339Z,56.77
2019-05-19T01:20:38.922Z,57.10
2019-05-19T01:23:08.477Z,53.42
2019-05-19T01:25:37.102Z,56.37
2019-05-19T01:28:05.703Z,55.70
2019-05-19T01:30:34.300Z,54.53
2019-05-19T01:33:02.919Z,55.67
2019-05-19T01:35:31.468Z,55.73
2019-05-19T01:38:00.135Z,57.50
2019-05-19T01:40:28.728Z,55.30
2019-05-19T01:42:57.330Z,51.42
2019-05-19T01:45:25.917Z,55.23
2019-05-19T01:47:54.455Z,51.03
2019-05-19T01:50:23.050Z,53.73
2019-05-19T01:52:51.657Z,56.73
2019-05-19T01:55:20.291Z,57.97
2019-05-19T01:57:48.890Z,54.97
2019-05-19T02:00:17.430Z,53.67
2019-05-19T02:02:46.057Z,55.77
2019-05-19T02:05:14.882Z,58.07
2019-05-19T02:07:44.396Z,52.98
2019-05-19T02:10:14.628Z,58.00
2019-05-19T02:12:43.268Z,59.47
2019-05-19T02:15:11.894Z,53.80
2019-05-19T02:17:40.505Z,55.33
2019-05-19T02:20:09.647Z,52.33
2019-05-19T02:22:38.391Z,55.05
2019-05-19T02:25:07.439Z,52.98
2019-05-19T02:27:36.105Z,58.63
2019-05-19T02:30:05.117Z,55.40
2019-05-19T02:32:33.714Z,58.70
2019-05-19T02:35:02.334Z,57.53
2019-05-19T02:37:30.929Z,56.03
2019-05-19T02:39:59.601Z,58.70
2019-05-19T02:42:29.250Z,60.27
2019-05-19T02:44:58.571Z,55.50
2019-05-19T02:47:27.890Z,59.83
2019-05-19T02:49:56.984Z,57.43
2019-05-19T02:52:27.222Z,58.58
2019-05-19T02:54:56.134Z,56.27
2019-05-19T02:57:24.739Z,56.28
2019-05-19T02:59:53.335Z,54.58
2019-05-19T03:02:21.929Z,55.67
2019-05-19T03:04:50.612Z,60.97
2019-05-19T03:07:19.229Z,54.45
2019-05-19T03:09:48.556Z,58.55
2019-05-19T03:12:18.122Z,55.10
2019-05-19T03:14:46.715Z,55.13
2019-05-19T03:17:15.320Z,55.00
2019-05-19T03:19:44.312Z,53.50
2019-05-19T03:22:12.958Z,58.53
2019-05-19T03:24:42.079Z,56.95
2019-05-19T03:27:10.678Z,58.30
2019-05-19T03:29:44.073Z,60.15
2019-05-19T03:32:27.685Z,60.03
2019-05-19T03:34:56.292Z,58.03
2019-05-19T03:37:24.886Z,56.30
2019-05-19T03:39:53.503Z,61.47
2019-05-19T03:42:22.114Z,62.75
2019-05-19T03:44:50.635Z,63.90
2019-05-19T03:47:19.323Z,59.00
2019-05-19T03:49:47.986Z,61.07
2019-05-19T03:52:16.585Z,62.37
2019-05-19T03:54:45.126Z,52.27
2019-05-19T03:57:13.724Z,60.78
2019-05-19T03:59:42.410Z,64.40
2019-05-19T04:02:11.017Z,58.92
2019-05-19T04:04:39.631Z,65.63
2019-05-19T04:07:08.322Z,55.85
2019-05-19T04:09:36.921Z,62.73
2019-05-19T04:12:05.477Z,62.25
2019-05-19T04:14:33.990Z,51.20
2019-05-19T04:17:02.531Z,64.93
2019-05-19T04:19:31.230Z,63.70
2019-05-19T04:21:59.843Z,61.27
2019-05-19T04:24:28.452Z,62.97
2019-05-19T04:26:57.085Z,60.88
2019-05-19T04:29:25.673Z,67.60
2019-05-19T04:31:54.263Z,65.20
2019-05-19T04:34:22.882Z,62.23
2019-05-19T04:36:51.587Z,60.07
2019-05-19T04:39:20.258Z,65.07
2019-05-19T04:41:48.861Z,70.17
2019-05-19T04:44:17.399Z,58.37
2019-05-19T04:46:46.013Z,65.87
2019-05-19T04:49:14.597Z,62.67
2019-05-19T04:51:43.214Z,65.77
2019-05-19T04:54:11.826Z,63.07
2019-05-19T04:56:40.438Z,64.97
2019-05-19T04:59:09.033Z,67.33
2019-05-19T05:01:37.649Z,63.43
2019-05-19T05:04:06.186Z,63.83
2019-05-19T05:06:34.794Z,64.80
2019-05-19T05:09:05.466Z,65.50
2019-05-19T05:11:34.138Z,60.20
2019-05-19T05:14:02.741Z,61.83
2019-05-19T05:16:31.302Z,66.55
2019-05-19T05:18:59.839Z,45.70
2019-05-19T05:21:28.523Z,66.80
2019-05-19T05:23:57.141Z,62.57
2019-05-19T05:26:25.658Z,61.68
2019-05-19T05:28:54.278Z,65.73
2019-05-19T05:31:22.954Z,63.65
2019-05-19T05:33:51.470Z,61.63
2019-05-19T05:36:20.078Z,53.05
2019-05-19T05:38:48.707Z,70.00
2019-05-19T05:41:17.283Z,53.35
2019-05-19T05:43:45.901Z,62.77
2019-05-19T05:46:14.513Z,68.40
2019-05-19T05:48:43.061Z,59.07
2019-05-19T05:51:11.605Z,68.05
2019-05-19T05:53:40.217Z,66.90
2019-05-19T05:56:09.257Z,61.63
2019-05-19T05:58:37.876Z,59.40
2019-05-19T06:01:07.060Z,62.48
2019-05-19T06:03:35.650Z,61.90
2019-05-19T06:06:04.933Z,50.55
2019-05-19T06:08:33.529Z,67.27
2019-05-19T06:11:02.817Z,58.28
2019-05-19T06:13:31.401Z,59.37
2019-05-19T06:16:00.605Z,61.75
2019-05-19T06:18:29.210Z,63.10
2019-05-19T06:20:57.815Z,62.27
2019-05-19T06:23:26.422Z,60.30
2019-05-19T06:25:55.018Z,61.40
2019-05-19T06:28:23.688Z,65.73
2019-05-19T06:30:52.310Z,56.80
2019-05-19T06:33:20.917Z,64.83
2019-05-19T06:35:50.258Z,62.75
2019-05-19T06:38:18.878Z,59.60
2019-05-19T06:40:48.076Z,59.25
2019-05-19T06:43:16.707Z,56.50
2019-05-19T06:45:45.992Z,66.07
2019-05-19T06:48:14.634Z,66.03
2019-05-19T06:50:43.214Z,64.12
2019-05-19T06:53:14.449Z,67.03
2019-05-19T06:55:42.057Z,58.77
2019-05-19T06:58:10.650Z,61.40
2019-05-19T07:00:39.673Z,58.42
2019-05-19T07:03:08.394Z,62.23
2019-05-19T07:05:37.365Z,63.38
2019-05-19T07:08:06.009Z,59.30
2019-05-19T07:10:34.668Z,62.60
2019-05-19T07:13:03.401Z,59.33
2019-05-19T07:15:32.632Z,61.95
2019-05-19T07:18:01.242Z,60.90
2019-05-19T07:20:29.842Z,59.73
2019-05-19T07:22:58.499Z,60.83
2019-05-19T07:25:27.071Z,62.87
2019-05-19T07:27:55.564Z,59.67
2019-05-19T07:30:24.130Z,59.53
2019-05-19T07:32:52.738Z,57.77
2019-05-19T07:35:21.349Z,60.00
2019-05-19T07:37:50.414Z,62.95
2019-05-19T07:40:18.946Z,61.33
2019-05-19T07:42:48.102Z,30.90
2019-05-19T07:45:16.779Z,35.07
2019-05-19T07:47:45.906Z,36.90
2019-05-19T07:50:14.450Z,49.90
2019-05-19T07:52:43.048Z,62.30
2019-05-19T07:55:11.652Z,54.55
2019-05-19T07:57:40.267Z,62.93
2019-05-19T08:00:09.379Z,56.18
2019-05-19T08:02:38.206Z,55.50
2019-05-19T08:05:07.015Z,52.33
2019-05-19T08:07:36.105Z,55.00
2019-05-19T08:10:04.726Z,55.20
2019-05-19T08:12:33.840Z,56.80
2019-05-19T08:15:02.555Z,46.53
2019-05-19T08:17:31.841Z,55.65
2019-05-19T08:20:00.457Z,49.50
2019-05-19T08:22:29.614Z,51.18
2019-05-19T08:24:58.149Z,54.43
2019-05-19T08:27:26.663Z,50.87
2019-05-19T08:29:55.337Z,50.37
2019-05-19T08:32:23.907Z,40.13
2019-05-19T08:34:52.557Z,39.58
2019-05-19T08:37:21.190Z,50.30
2019-05-19T08:39:49.785Z,52.00
2019-05-19T08:42:18.314Z,43.83
2019-05-19T08:44:46.936Z,50.45
2019-05-19T08:47:16.221Z,44.70
2019-05-19T08:49:44.846Z,48.80
2019-05-19T08:52:13.369Z,52.25
2019-05-19T08:54:41.984Z,49.25
2019-05-19T08:57:10.598Z,47.87
2019-05-19T08:59:39.193Z,42.23
2019-05-19T09:02:07.801Z,42.17
2019-05-19T09:04:36.343Z,35.53
2019-05-19T09:07:04.935Z,46.97
2019-05-19T09:09:33.546Z,46.53
2019-05-19T09:12:02.142Z,45.88
2019-05-19T09:14:30.746Z,42.00
2019-05-19T09:16:59.985Z,44.20
2019-05-19T09:19:28.561Z,36.80
2019-05-19T09:21:57.725Z,43.23
2019-05-19T09:24:30.383Z,37.00
2019-05-19T09:26:56.660Z,41.30
2019-05-19T09:29:25.226Z,29.43
2019-05-19T09:31:53.804Z,32.67
2019-05-19T09:34:22.357Z,36.57
2019-05-19T09:36:51.445Z,39.80
2019-05-19T09:39:20.034Z,44.07
2019-05-19T09:41:49.825Z,42.17
2019-05-19T09:44:18.347Z,43.47
2019-05-19T09:46:47.500Z,43.20
2019-05-19T09:49:35.166Z,44.00
2019-05-19T09:52:04.782Z,44.37
2019-05-19T09:54:44.911Z,35.08
2019-05-19T09:57:03.766Z,42.13
2019-05-19T09:59:32.381Z,43.13
2019-05-19T10:02:00.971Z,45.23
2019-05-19T10:04:30.572Z,44.93
2019-05-19T10:06:59.649Z,45.78
2019-05-19T10:09:41.888Z,35.10
2019-05-19T10:12:10.478Z,41.55
2019-05-19T10:14:39.090Z,37.83
2019-05-19T10:17:07.713Z,42.37
2019-05-19T10:19:36.654Z,33.58
2019-05-19T10:22:05.321Z,29.93
2019-05-19T10:24:34.625Z,39.65
2019-05-19T10:27:03.226Z,39.77
2019-05-19T10:29:33.318Z,25.35
2019-05-19T10:32:01.946Z,36.05
2019-05-19T10:34:30.488Z,35.40
2019-05-19T10:36:59.101Z,33.57
2019-05-19T10:39:28.819Z,36.67
2019-05-19T10:41:57.405Z,37.80
2019-05-19T10:44:26.622Z,31.33
2019-05-19T10:46:55.217Z,33.90
2019-05-19T10:49:23.822Z,32.20
2019-05-19T10:51:52.436Z,35.63
2019-05-19T10:54:21.765Z,29.20
2019-05-19T10:56:50.297Z,32.53
2019-05-19T10:59:19.885Z,38.77
2019-05-19T11:01:48.562Z,41.10
2019-05-19T11:04:17.713Z,41.60
2019-05-19T11:06:46.250Z,42.53
2019-05-19T11:09:15.272Z,34.10
2019-05-19T11:11:43.926Z,38.23
2019-05-19T11:14:13.109Z,42.98
2019-05-19T11:16:41.630Z,32.13
2019-05-19T11:19:10.231Z,38.23
2019-05-19T11:21:38.926Z,39.48
2019-05-19T11:24:07.481Z,41.10
2019-05-19T11:26:36.077Z,42.15
2019-05-19T11:29:04.758Z,40.20
2019-05-19T11:31:33.372Z,39.48
2019-05-19T11:34:02.903Z,32.38
2019-05-19T11:36:31.505Z,38.85
2019-05-19T11:39:00.109Z,42.40
2019-05-19T11:41:28.721Z,41.80
2019-05-19T11:43:57.509Z,42.63
2019-05-19T11:46:26.038Z,43.02
2019-05-19T11:48:54.585Z,41.17
2019-05-19T11:51:23.225Z,26.97
2019-05-19T11:53:51.748Z,36.98
2019-05-19T11:56:20.346Z,39.87
2019-05-19T11:58:49.583Z,40.88
2019-05-19T12:01:18.242Z,33.43
2019-05-19T12:03:47.261Z,40.15
2019-05-19T12:06:15.854Z,38.37
2019-05-19T12:08:45.027Z,31.65
2019-05-19T12:11:13.738Z,46.43
2019-05-19T12:13:42.413Z,44.60
2019-05-19T12:16:11.083Z,38.73
2019-05-19T12:18:39.698Z,41.58
2019-05-19T12:21:08.834Z,45.65
2019-05-19T12:23:37.422Z,39.90
2019-05-19T12:26:22.009Z,45.00
2019-05-19T12:28:36.743Z,44.50
2019-05-19T12:31:05.354Z,23.65
2019-05-19T12:33:33.973Z,43.77
2019-05-19T12:36:02.568Z,45.13
2019-05-19T12:38:31.213Z,43.40
2019-05-19T12:40:59.803Z,43.57
2019-05-19T12:43:28.397Z,26.93
2019-05-19T12:45:57.363Z,45.08
2019-05-19T12:48:25.962Z,46.77
2019-05-19T12:50:54.555Z,38.53
2019-05-19T12:53:23.213Z,28.87
2019-05-19T12:55:51.745Z,45.47
2019-05-19T12:58:20.313Z,44.83
2019-05-19T13:00:48.925Z,38.83
2019-05-19T13:03:19.062Z,39.40
2019-05-19T13:05:47.667Z,35.40
2019-05-19T13:08:16.306Z,42.83
2019-05-19T13:10:44.901Z,39.70
2019-05-19T13:13:13.494Z,35.23
2019-05-19T13:15:42.122Z,33.73
2019-05-19T13:18:10.802Z,46.17
2019-05-19T13:20:39.426Z,26.45
2019-05-19T13:23:08.428Z,32.93
2019-05-19T13:25:37.717Z,38.35
2019-05-19T13:28:06.249Z,41.83
2019-05-19T13:30:35.485Z,41.92
2019-05-19T13:33:04.062Z,46.17
2019-05-19T13:35:32.662Z,43.97
2019-05-19T13:38:01.253Z,41.67
2019-05-19T13:40:29.800Z,39.57
2019-05-19T13:42:58.413Z,39.10
2019-05-19T13:45:27.012Z,41.93
2019-05-19T13:47:55.706Z,41.55
2019-05-19T13:50:24.314Z,39.75
2019-05-19T13:52:53.262Z,41.30
2019-05-19T13:55:21.870Z,38.47
2019-05-19T13:57:51.078Z,43.92
2019-05-19T14:00:19.738Z,43.87
2019-05-19T14:02:48.853Z,54.88
2019-05-19T14:05:17.394Z,45.23
2019-05-19T14:07:46.660Z,48.60
2019-05-19T14:10:15.258Z,46.63
2019-05-19T14:12:44.376Z,47.67
2019-05-19T14:15:13.289Z,43.83
2019-05-19T14:17:41.947Z,45.52
2019-05-19T14:20:10.570Z,38.17
2019-05-19T14:22:39.253Z,47.10
2019-05-19T14:25:07.790Z,49.73
2019-05-19T14:27:36.401Z,49.57
2019-05-19T14:30:06.008Z,53.87
2019-05-19T14:32:34.614Z,36.77
2019-05-19T14:35:03.235Z,43.23
2019-05-19T14:37:31.906Z,40.85
2019-05-19T14:40:00.577Z,33.47
2019-05-19T14:42:45.758Z,41.57
2019-05-19T14:45:14.453Z,49.25
2019-05-19T14:47:43.120Z,40.47
2019-05-19T14:50:11.763Z,44.35
2019-05-19T14:52:40.373Z,37.30
2019-05-19T14:55:08.898Z,39.03
2019-05-19T14:57:44.776Z,43.33
2019-05-19T15:00:08.245Z,40.13
2019-05-19T15:02:36.804Z,43.93
2019-05-19T15:05:05.557Z,31.95
2019-05-19T15:07:34.050Z,44.20
2019-05-19T15:10:02.577Z,33.85
2019-05-19T15:12:31.217Z,41.17
2019-05-19T15:15:00.914Z,40.10
2019-05-19T15:17:29.433Z,53.50
2019-05-19T15:19:58.057Z,50.27
2019-05-19T15:22:26.581Z,49.63
2019-05-19T15:24:55.171Z,30.87
2019-05-19T15:27:23.849Z,37.13
2019-05-19T15:29:52.407Z,54.85
2019-05-19T15:32:21.000Z,48.40
2019-05-19T15:34:50.039Z,40.50
2019-05-19T15:37:18.673Z,49.97
2019-05-19T15:39:47.764Z,40.05
2019-05-19T15:42:16.364Z,50.43
2019-05-19T15:44:44.993Z,52.15
2019-05-19T15:47:13.592Z,34.77
2019-05-19T15:49:42.185Z,38.57
2019-05-19T15:52:10.851Z,51.40
2019-05-19T15:54:39.434Z,56.37
2019-05-19T15:57:08.084Z,61.07
2019-05-19T15:59:36.674Z,50.88
2019-05-19T16:02:05.224Z,41.70
2019-05-19T16:04:34.439Z,53.23
2019-05-19T16:07:03.015Z,44.93
2019-05-19T16:09:32.297Z,48.83
2019-05-19T16:12:00.894Z,52.60
2019-05-19T16:14:30.078Z,51.42
2019-05-19T16:16:58.608Z,44.33
2019-05-19T16:19:27.213Z,52.43
2019-05-19T16:21:55.769Z,42.07
2019-05-19T16:24:24.453Z,59.08
2019-05-19T16:26:53.225Z,62.03
2019-05-19T16:29:21.746Z,37.83
2019-05-19T16:31:50.347Z,68.45
2019-05-19T16:34:18.950Z,68.37
2019-05-19T16:36:47.633Z,59.67
2019-05-19T16:39:16.243Z,42.33
2019-05-19T16:41:44.941Z,64.43
2019-05-19T16:44:13.874Z,35.13
2019-05-19T16:46:42.501Z,51.77
2019-05-19T16:49:11.682Z,42.98
2019-05-19T16:51:40.459Z,42.50
2019-05-19T16:54:13.818Z,43.58
2019-05-19T16:56:42.489Z,43.07
2019-05-19T16:59:12.163Z,41.23
2019-05-19T17:01:40.839Z,45.17
2019-05-19T17:04:09.934Z,44.38
2019-05-19T17:06:38.605Z,46.37
2019-05-19T17:09:07.831Z,53.65
2019-05-19T17:11:37.214Z,48.28
2019-05-19T17:14:05.878Z,48.00
2019-05-19T17:16:34.474Z,49.33
2019-05-19T17:19:03.078Z,47.30
2019-05-19T17:21:31.718Z,51.03
2019-05-19T17:24:00.420Z,46.83
2019-05-19T17:26:29.017Z,45.87
2019-05-19T17:29:00.590Z,42.00
2019-05-19T17:31:28.466Z,40.78
2019-05-19T17:33:57.067Z,41.07
2019-05-19T17:36:27.473Z,43.20
2019-05-19T17:38:56.143Z,43.35
2019-05-19T17:41:24.745Z,46.90
2019-05-19T17:43:53.270Z,48.53
2019-05-19T17:46:21.882Z,47.43
2019-05-19T17:48:51.222Z,50.25
2019-05-19T17:51:19.834Z,43.93
2019-05-19T17:53:48.892Z,53.02
2019-05-19T17:56:17.673Z,49.50
2019-05-19T17:58:47.268Z,53.30
2019-05-19T18:01:15.866Z,52.63
2019-05-19T18:03:44.898Z,38.35
2019-05-19T18:06:13.493Z,45.00
2019-05-19T18:08:42.446Z,45.05
2019-05-19T18:11:11.130Z,35.47
2019-05-19T18:13:40.072Z,43.13
2019-05-19T18:16:08.677Z,44.07
2019-05-19T18:18:38.256Z,51.13
2019-05-19T18:21:06.878Z,54.47
2019-05-19T18:23:36.209Z,48.87
2019-05-19T18:26:07.173Z,55.10
2019-05-19T18:28:35.137Z,56.60
2019-05-19T18:31:03.753Z,59.33
2019-05-19T18:33:32.658Z,61.30
2019-05-19T18:36:01.210Z,56.18
2019-05-19T18:38:29.877Z,65.30
2019-05-19T18:40:58.577Z,64.83
2019-05-19T18:43:27.441Z,63.97
2019-05-19T18:45:56.067Z,63.07
2019-05-19T18:48:24.638Z,56.18
2019-05-19T18:50:53.179Z,57.10
2019-05-19T18:53:22.010Z,57.37
2019-05-19T18:55:50.598Z,49.57
2019-05-19T18:58:19.318Z,55.90
2019-05-19T19:00:48.014Z,56.07
2019-05-19T19:03:16.709Z,54.40
2019-05-19T19:05:45.301Z,56.20
2019-05-19T19:08:13.825Z,54.03
2019-05-19T19:10:42.465Z,52.50
2019-05-19T19:13:11.074Z,46.80
2019-05-19T19:15:39.762Z,51.47
2019-05-19T19:18:08.934Z,53.58
2019-05-19T19:20:37.608Z,45.67
2019-05-19T19:23:06.225Z,35.63
2019-05-19T19:25:34.837Z,48.75
2019-05-19T19:28:03.433Z,44.75
2019-05-19T19:30:31.981Z,41.63
2019-05-19T19:33:00.514Z,30.90
2019-05-19T19:35:38.211Z,44.23
2019-05-19T19:37:59.593Z,48.40
2019-05-19T19:40:28.917Z,43.23
2019-05-19T19:42:58.147Z,36.40
2019-05-19T19:45:26.773Z,47.78
2019-05-19T19:47:55.369Z,51.70
2019-05-19T19:50:23.977Z,49.27
2019-05-19T19:52:52.574Z,54.40
2019-05-19T19:55:21.209Z,29.53
2019-05-19T19:57:49.835Z,42.78
2019-05-19T20:00:36.472Z,48.48
2019-05-19T20:03:06.294Z,51.88
2019-05-19T20:05:35.182Z,52.50
2019-05-19T20:08:05.071Z,45.10
2019-05-19T20:10:33.665Z,46.20
2019-05-19T20:13:02.204Z,45.77
2019-05-19T20:15:30.813Z,46.97
2019-05-19T20:17:59.435Z,41.90
2019-05-19T20:20:28.077Z,42.93
2019-05-19T20:22:56.693Z,41.07
2019-05-19T20:25:25.317Z,45.00
2019-05-19T20:27:53.959Z,40.65
2019-05-19T20:30:35.036Z,37.70
2019-05-19T20:32:53.198Z,44.65
2019-05-19T20:35:21.805Z,43.33
2019-05-19T20:37:50.664Z,42.58
2019-05-19T20:40:19.263Z,40.30
2019-05-19T20:42:47.870Z,20.43
2019-05-19T20:45:16.862Z,43.58
2019-05-19T20:47:45.533Z,35.63
2019-05-19T20:50:14.248Z,40.90
2019-05-19T20:52:42.925Z,43.73
2019-05-19T20:55:11.470Z,41.77
2019-05-19T20:57:40.078Z,40.43
2019-05-19T21:00:09.814Z,40.37
2019-05-19T21:02:38.484Z,39.17
2019-05-19T21:05:07.084Z,39.35
2019-05-19T21:07:35.690Z,43.30
2019-05-19T21:10:04.583Z,47.80
2019-05-19T21:12:34.154Z,41.50
2019-05-19T21:15:02.685Z,28.67
2019-05-19T21:17:31.421Z,45.70
2019-05-19T21:20:00.386Z,33.55
2019-05-19T21:22:28.982Z,47.17
2019-05-19T21:24:57.629Z,44.90
2019-05-19T21:27:26.155Z,48.20
2019-05-19T21:29:55.328Z,41.70
2019-05-19T21:32:23.917Z,48.87
2019-05-19T21:34:52.534Z,48.80
2019-05-19T21:37:21.203Z,54.40
2019-05-19T21:39:49.834Z,59.85
2019-05-19T21:42:18.526Z,64.63
2019-05-19T21:44:47.101Z,46.08
2019-05-19T21:47:15.684Z,67.70
2019-05-19T21:49:44.214Z,66.65
2019-05-19T21:52:12.721Z,61.63
2019-05-19T21:54:41.305Z,63.02
2019-05-19T21:57:09.832Z,80.93
2019-05-19T21:59:38.430Z,76.53
2019-05-19T22:02:07.197Z,68.00
2019-05-19T22:04:35.804Z,63.98
2019-05-19T22:07:12.522Z,62.27
2019-05-19T22:09:41.137Z,63.58
2019-05-19T22:12:10.878Z,62.13
2019-05-19T22:14:39.427Z,70.50
2019-05-19T22:17:09.109Z,62.07
2019-05-19T22:19:37.646Z,69.37
2019-05-19T22:22:06.183Z,80.95
2019-05-19T22:24:34.776Z,77.10
2019-05-19T22:27:03.470Z,77.85
2019-05-19T22:29:32.106Z,68.28
2019-05-19T22:32:00.705Z,76.27
2019-05-19T22:34:29.306Z,80.35
2019-05-19T22:36:59.234Z,72.10
2019-05-19T22:39:27.845Z,79.57
2019-05-19T22:41:56.367Z,75.30
2019-05-19T22:44:26.126Z,73.57
2019-05-19T22:46:54.646Z,63.68
2019-05-19T22:49:23.770Z,71.87
2019-05-19T22:51:52.381Z,61.35
2019-05-19T22:54:20.982Z,19.50
2019-05-19T22:56:49.592Z,55.33
2019-05-19T22:59:20.122Z,64.17
2019-05-19T23:01:51.672Z,56.10
2019-05-19T23:04:18.656Z,53.92
2019-05-19T23:06:47.259Z,51.68
2019-05-19T23:09:15.886Z,52.43
2019-05-19T23:11:44.510Z,50.37
2019-05-19T23:14:13.182Z,44.60
2019-05-19T23:16:41.785Z,42.60
2019-05-19T23:19:10.395Z,41.77
2019-05-19T23:21:39.007Z,38.45
2019-05-19T23:24:07.530Z,38.33
2019-05-19T23:26:36.168Z,36.20
2019-05-19T23:29:06.464Z,37.33
2019-05-19T23:31:35.077Z,21.82
2019-05-19T23:34:03.702Z,40.05
2019-05-19T23:36:32.433Z,35.87
2019-05-19T23:39:01.018Z,34.60
2019-05-19T23:41:29.726Z,36.47
2019-05-19T23:43:58.341Z,30.43
2019-05-19T23:46:27.069Z,32.60
2019-05-19T23:48:55.918Z,30.47
2019-05-19T23:51:24.523Z,32.60
2019-05-19T23:53:53.131Z,28.00
2019-05-19T23:56:21.733Z,30.00
2019-05-19T23:58:50.273Z,28.60
